ADDS METAR Data INFO
IDs: Format: Raw Decoded Include TAF

Data at: 0727 UTC 16 Jan 2018

METAR for:PASD (Sand Point Arpt, AK, US)
Text:PASD 160656Z AUTO 13005KT 10SM FEW027 BKN039 BKN075 02/M01 A2928 RMK AO2 UPB09E22RAB22E35 SLP918 P0000 T00171006 FZRANO
Temperature: 1.7°C ( 35°F)
Dewpoint: -0.6°C ( 31°F) [RH = 85%]
Pressure (altimeter):29.28 inches Hg ( 991.6 mb) [Sea level pressure: 991.8 mb]
Winds:from the SE (130 degrees) at 6 MPH (5 knots; 2.6 m/s)
Visibility:10 or more sm (16+ km)
Ceiling:3900 feet AGL
Clouds: few clouds at 2700 feet AGL, broken clouds at 3900 feet AGL, broken clouds at 7500 feet AGL
QC Flag:automated observation with no human augmentation
Text:PASD 160623Z AUTO 20007KT 10SM -RA FEW013 BKN019 BKN024 02/00 A2928 RMK AO2 UPB09E22RAB22 P0000 FZRANO
Temperature: 2.0°C ( 36°F)
Dewpoint: 0.0°C ( 32°F) [RH = 87%]
Pressure (altimeter):29.28 inches Hg ( 991.6 mb)
Winds:from the SSW (200 degrees) at 8 MPH (7 knots; 3.6 m/s)
Visibility:10 or more sm (16+ km)
Ceiling:1900 feet AGL
Clouds: few clouds at 1300 feet AGL, broken clouds at 1900 feet AGL, broken clouds at 2400 feet AGL
Weather:-RA (light rain)
QC Flag:automated observation with no human augmentation
Text:PASD 160556Z AUTO 19009KT 10SM SCT029 03/00 A2928 RMK AO2 RAB28E41 SLP916 P0000 60000 T00280000 10044 20028 50022
Temperature: 2.8°C ( 37°F)
Dewpoint: 0.0°C ( 32°F) [RH = 82%]
Pressure (altimeter):29.28 inches Hg ( 991.6 mb) [Sea level pressure: 991.6 mb]
Winds:from the S (190 degrees) at 10 MPH (9 knots; 4.6 m/s)
Visibility:10 or more sm (16+ km)
Ceiling:at least 12,000 feet AGL
Clouds: scattered clouds at 2900 feet AGL
QC Flag:automated observation with no human augmentation
Text:PASD 160545Z AUTO 18005KT 10SM SCT025 SCT030 03/M01 A2922 RMK AO2 RAB28E41 P0000
Temperature: 3.0°C ( 37°F)
Dewpoint: -1.0°C ( 30°F) [RH = 75%]
Pressure (altimeter):29.22 inches Hg ( 989.6 mb)
Winds:from the S (180 degrees) at 6 MPH (5 knots; 2.6 m/s)
Visibility:10 or more sm (16+ km)
Ceiling:at least 12,000 feet AGL
Clouds: scattered clouds at 2500 feet AGL, scattered clouds at 3000 feet AGL
QC Flag:automated observation with no human augmentation
Text:PASD 160504Z AUTO 19008KT 10SM SCT023 BKN043 03/00 A2926 RMK AO2
Temperature: 3.0°C ( 37°F)
Dewpoint: 0.0°C ( 32°F) [RH = 81%]
Pressure (altimeter):29.26 inches Hg ( 990.9 mb)
Winds:from the S (190 degrees) at 9 MPH (8 knots; 4.1 m/s)
Visibility:10 or more sm (16+ km)
Ceiling:4300 feet AGL
Clouds: scattered clouds at 2300 feet AGL, broken clouds at 4300 feet AGL
QC Flag:automated observation with no human augmentation
Text:PASD 160456Z AUTO 20009KT 10SM BKN025 OVC045 03/00 A2930 RMK AO2 SLPNO T00330000
Temperature: 3.3°C ( 38°F)
Dewpoint: 0.0°C ( 32°F) [RH = 79%]
Pressure (altimeter):29.30 inches Hg ( 992.3 mb)
Winds:from the SSW (200 degrees) at 10 MPH (9 knots; 4.6 m/s)
Visibility:10 or more sm (16+ km)
Ceiling:2500 feet AGL
Clouds: broken clouds at 2500 feet AGL, overcast cloud deck at 4500 feet AGL
QC Flag:automated observation with no human augmentation
Text:PASD 160441Z AUTO 18008KT 10SM BKN023 04/00 A2926 RMK AO2
Temperature: 4.0°C ( 39°F)
Dewpoint: 0.0°C ( 32°F) [RH = 75%]
Pressure (altimeter):29.26 inches Hg ( 990.9 mb)
Winds:from the S (180 degrees) at 9 MPH (8 knots; 4.1 m/s)
Visibility:10 or more sm (16+ km)
Ceiling:2300 feet AGL
Clouds: broken clouds at 2300 feet AGL
QC Flag:automated observation with no human augmentation
Text:PASD 160356Z 16006KT 10SM FEW023 SCT030 BKN040 03/M01 A2922 RMK AO2 SLPNO LAST AE T00331006
Temperature: 3.3°C ( 38°F)
Dewpoint: -0.6°C ( 31°F) [RH = 76%]
Pressure (altimeter):29.22 inches Hg ( 989.6 mb)
Winds:from the SSE (160 degrees) at 7 MPH (6 knots; 3.1 m/s)
Visibility:10 or more sm (16+ km)
Ceiling:4000 feet AGL
Clouds: few clouds at 2300 feet AGL, scattered clouds at 3000 feet AGL, broken clouds at 4000 feet AGL
Text:PASD 160351Z 16006KT 10SM FEW021 BKN026 BKN040 03/M01 A2925 RMK AO2 VCSH SE-SW AE
Temperature: 3.0°C ( 37°F)
Dewpoint: -1.0°C ( 30°F) [RH = 75%]
Pressure (altimeter):29.25 inches Hg ( 990.6 mb)
Winds:from the SSE (160 degrees) at 7 MPH (6 knots; 3.1 m/s)
Visibility:10 or more sm (16+ km)
Ceiling:2600 feet AGL
Clouds: few clouds at 2100 feet AGL, broken clouds at 2600 feet AGL, broken clouds at 4000 feet AGL
Text:PASD 160256Z 19012KT 10SM FEW021 BKN026 BKN040 03/M01 A2921 RMK AO2 SLPNO VCSH SE-SW AE 60000 T00331011 58031
Temperature: 3.3°C ( 38°F)
Dewpoint: -1.1°C ( 30°F) [RH = 73%]
Pressure (altimeter):29.21 inches Hg ( 989.2 mb)
Winds:from the S (190 degrees) at 14 MPH (12 knots; 6.2 m/s)
Visibility:10 or more sm (16+ km)
Ceiling:2600 feet AGL
Clouds: few clouds at 2100 feet AGL, broken clouds at 2600 feet AGL, broken clouds at 4000 feet AGL

TAF for:PASD (Sand Point Arpt, AK, US) issued at 0527 UTC 16 Jan 2018
Text:PASD 160527Z 1606/1706 19008KT P6SM VCSH SCT025 BKN045
Forecast period:0600 to 1000 UTC 16 January 2018
Forecast type:FROM: standard forecast or significant change
Winds:from the S (190 degrees) at 9 MPH (8 knots; 4.1 m/s)
Visibility:6 or more sm (10+ km)
Ceiling:4500 feet AGL
Clouds: scattered clouds at 2500 feet AGL, broken clouds at 4500 feet AGL
Weather:VCSH (showers in vicinity)
Text:TEMPO 1606/1610 -SHRA BKN025
Forecast period:0600 to 1000 UTC 16 January 2018
Forecast type:TEMPORARY: The following changes expected for less than half the time period
Ceiling:2500 feet AGL
Clouds: broken clouds at 2500 feet AGL
Weather:-SHRA (light rain showers)
Text:FM161000 10005KT P6SM SCT080
Forecast period:1000 to 1800 UTC 16 January 2018
Forecast type:FROM: standard forecast or significant change
Winds:from the E (100 degrees) at 6 MPH (5 knots; 2.6 m/s)
Visibility:6 or more sm (10+ km)
Ceiling:at least 12,000 feet AGL
Clouds: scattered clouds at 8000 feet AGL
Text:FM161800 33010KT P6SM SCT050
Forecast period:1800 UTC 16 January 2018 to 0300 UTC 17 January 2018
Forecast type:FROM: standard forecast or significant change
Winds:from the NNW (330 degrees) at 12 MPH (10 knots; 5.1 m/s)
Visibility:6 or more sm (10+ km)
Ceiling:at least 12,000 feet AGL
Clouds: scattered clouds at 5000 feet AGL
Text:FM170300 33020G30KT P6SM BKN050 AMD LTD TO CLD VIS AND WIND
Forecast period:0300 to 0600 UTC 17 January 2018
Forecast type:FROM: standard forecast or significant change
Winds:from the NNW (330 degrees) at 23 MPH (20 knots; 10.3 m/s) gusting to 34 MPH (30 knots; 15.4 m/s)
Visibility:6 or more sm (10+ km)
Ceiling:5000 feet AGL
Clouds: broken clouds at 5000 feet AGL